sensor_id;sensor_type;location;lat;lon;timestamp;P1;durP1;ratioP1;P2;durP2;ratioP2
54657;SDS011;56972;43.886;20.354;2022-07-29T00:01:16;9.13;;;8.02;;
54657;SDS011;56972;43.886;20.354;2022-07-29T00:03:42;10.38;;;6.28;;
54657;SDS011;56972;43.886;20.354;2022-07-29T00:06:08;8.07;;;6.60;;
54657;SDS011;56972;43.886;20.354;2022-07-29T00:08:34;7.40;;;6.13;;
54657;SDS011;56972;43.886;20.354;2022-07-29T00:11:00;10.80;;;7.10;;
54657;SDS011;56972;43.886;20.354;2022-07-29T00:13:26;9.80;;;8.02;;
54657;SDS011;56972;43.886;20.354;2022-07-29T00:15:52;10.68;;;7.30;;
54657;SDS011;56972;43.886;20.354;2022-07-29T00:18:18;11.57;;;6.57;;
54657;SDS011;56972;43.886;20.354;2022-07-29T00:20:44;11.07;;;6.55;;
54657;SDS011;56972;43.886;20.354;2022-07-29T00:23:10;9.60;;;7.13;;
54657;SDS011;56972;43.886;20.354;2022-07-29T00:25:36;10.13;;;7.63;;
54657;SDS011;56972;43.886;20.354;2022-07-29T00:28:02;12.40;;;7.43;;
54657;SDS011;56972;43.886;20.354;2022-07-29T00:30:28;11.95;;;8.10;;
54657;SDS011;56972;43.886;20.354;2022-07-29T00:32:54;10.20;;;8.68;;
54657;SDS011;56972;43.886;20.354;2022-07-29T00:35:20;9.30;;;6.47;;
54657;SDS011;56972;43.886;20.354;2022-07-29T00:38:05;10.57;;;7.93;;
54657;SDS011;56972;43.886;20.354;2022-07-29T00:40:31;12.40;;;7.97;;
54657;SDS011;56972;43.886;20.354;2022-07-29T00:42:57;9.38;;;8.23;;
54657;SDS011;56972;43.886;20.354;2022-07-29T00:45:23;23.35;;;14.52;;
54657;SDS011;56972;43.886;20.354;2022-07-29T00:47:49;17.67;;;13.60;;
54657;SDS011;56972;43.886;20.354;2022-07-29T00:50:15;14.52;;;9.73;;
54657;SDS011;56972;43.886;20.354;2022-07-29T00:52:42;10.30;;;7.80;;
54657;SDS011;56972;43.886;20.354;2022-07-29T00:55:09;10.43;;;8.52;;
54657;SDS011;56972;43.886;20.354;2022-07-29T00:57:36;9.15;;;7.28;;
54657;SDS011;56972;43.886;20.354;2022-07-29T01:00:03;16.25;;;8.60;;
54657;SDS011;56972;43.886;20.354;2022-07-29T01:02:29;17.02;;;8.25;;
54657;SDS011;56972;43.886;20.354;2022-07-29T01:04:55;10.70;;;7.20;;
54657;SDS011;56972;43.886;20.354;2022-07-29T01:07:22;11.43;;;6.72;;
54657;SDS011;56972;43.886;20.354;2022-07-29T01:09:49;14.90;;;8.55;;
54657;SDS011;56972;43.886;20.354;2022-07-29T01:12:16;9.40;;;7.15;;
54657;SDS011;56972;43.886;20.354;2022-07-29T01:14:44;11.73;;;7.90;;
54657;SDS011;56972;43.886;20.354;2022-07-29T01:17:10;17.15;;;12.77;;
54657;SDS011;56972;43.886;20.354;2022-07-29T01:30:57;11.27;;;10.07;;
54657;SDS011;56972;43.886;20.354;2022-07-29T01:33:24;14.18;;;9.13;;
54657;SDS011;56972;43.886;20.354;2022-07-29T01:36:10;9.43;;;8.43;;
54657;SDS011;56972;43.886;20.354;2022-07-29T01:38:38;16.13;;;9.63;;
54657;SDS011;56972;43.886;20.354;2022-07-29T01:41:06;17.42;;;11.48;;
54657;SDS011;56972;43.886;20.354;2022-07-29T01:43:38;18.58;;;11.52;;
54657;SDS011;56972;43.886;20.354;2022-07-29T01:46:06;15.73;;;11.52;;
54657;SDS011;56972;43.886;20.354;2022-07-29T01:48:36;16.95;;;11.93;;
54657;SDS011;56972;43.886;20.354;2022-07-29T01:51:06;14.40;;;10.07;;
54657;SDS011;56972;43.886;20.354;2022-07-29T01:53:34;11.88;;;8.48;;
54657;SDS011;56972;43.886;20.354;2022-07-29T01:56:01;10.35;;;8.73;;
54657;SDS011;56972;43.886;20.354;2022-07-29T01:58:28;15.48;;;9.15;;
54657;SDS011;56972;43.886;20.354;2022-07-29T02:00:55;11.77;;;9.35;;
54657;SDS011;56972;43.886;20.354;2022-07-29T02:03:22;11.63;;;9.35;;
54657;SDS011;56972;43.886;20.354;2022-07-29T02:05:48;16.05;;;8.50;;
54657;SDS011;56972;43.886;20.354;2022-07-29T02:08:15;12.95;;;7.72;;
54657;SDS011;56972;43.886;20.354;2022-07-29T02:10:42;13.88;;;8.32;;
54657;SDS011;56972;43.886;20.354;2022-07-29T02:13:09;8.07;;;7.25;;
54657;SDS011;56972;43.886;20.354;2022-07-29T02:15:35;10.70;;;7.93;;
54657;SDS011;56972;43.886;20.354;2022-07-29T02:18:06;9.57;;;8.52;;
54657;SDS011;56972;43.886;20.354;2022-07-29T02:20:33;14.82;;;10.13;;
54657;SDS011;56972;43.886;20.354;2022-07-29T02:23:00;15.60;;;11.48;;
54657;SDS011;56972;43.886;20.354;2022-07-29T02:25:27;13.65;;;12.35;;
54657;SDS011;56972;43.886;20.354;2022-07-29T02:27:54;15.60;;;9.90;;
54657;SDS011;56972;43.886;20.354;2022-07-29T02:30:21;16.23;;;9.75;;
54657;SDS011;56972;43.886;20.354;2022-07-29T02:32:48;11.82;;;8.68;;
54657;SDS011;56972;43.886;20.354;2022-07-29T02:35:15;10.25;;;9.23;;
54657;SDS011;56972;43.886;20.354;2022-07-29T02:37:42;15.15;;;11.18;;
54657;SDS011;56972;43.886;20.354;2022-07-29T02:40:10;10.82;;;9.13;;
54657;SDS011;56972;43.886;20.354;2022-07-29T02:42:37;14.77;;;10.18;;
54657;SDS011;56972;43.886;20.354;2022-07-29T02:45:04;13.75;;;9.63;;
54657;SDS011;56972;43.886;20.354;2022-07-29T02:47:32;14.82;;;9.90;;
54657;SDS011;56972;43.886;20.354;2022-07-29T02:50:02;14.50;;;9.02;;
54657;SDS011;56972;43.886;20.354;2022-07-29T02:52:34;11.43;;;8.77;;
54657;SDS011;56972;43.886;20.354;2022-07-29T02:58:05;12.48;;;9.90;;
54657;SDS011;56972;43.886;20.354;2022-07-29T03:00:37;12.40;;;8.85;;
54657;SDS011;56972;43.886;20.354;2022-07-29T03:03:06;12.05;;;10.35;;
54657;SDS011;56972;43.886;20.354;2022-07-29T03:05:33;11.02;;;9.55;;
54657;SDS011;56972;43.886;20.354;2022-07-29T03:08:01;13.65;;;9.55;;
54657;SDS011;56972;43.886;20.354;2022-07-29T03:10:28;11.02;;;9.90;;
54657;SDS011;56972;43.886;20.354;2022-07-29T03:12:55;16.48;;;10.18;;
54657;SDS011;56972;43.886;20.354;2022-07-29T03:15:21;15.40;;;9.85;;
54657;SDS011;56972;43.886;20.354;2022-07-29T03:17:48;16.35;;;10.85;;
54657;SDS011;56972;43.886;20.354;2022-07-29T03:20:15;14.48;;;9.25;;
54657;SDS011;56972;43.886;20.354;2022-07-29T03:22:42;16.35;;;11.23;;
54657;SDS011;56972;43.886;20.354;2022-07-29T03:25:09;13.52;;;10.90;;
54657;SDS011;56972;43.886;20.354;2022-07-29T03:27:35;12.23;;;10.07;;
54657;SDS011;56972;43.886;20.354;2022-07-29T03:30:01;14.55;;;9.32;;
54657;SDS011;56972;43.886;20.354;2022-07-29T03:32:27;13.43;;;10.40;;
54657;SDS011;56972;43.886;20.354;2022-07-29T03:34:53;17.00;;;10.07;;
54657;SDS011;56972;43.886;20.354;2022-07-29T03:37:19;13.52;;;9.77;;
54657;SDS011;56972;43.886;20.354;2022-07-29T03:39:45;11.45;;;9.70;;
54657;SDS011;56972;43.886;20.354;2022-07-29T03:42:13;13.60;;;9.90;;
54657;SDS011;56972;43.886;20.354;2022-07-29T03:44:41;13.32;;;10.00;;
54657;SDS011;56972;43.886;20.354;2022-07-29T03:47:08;14.63;;;9.23;;
54657;SDS011;56972;43.886;20.354;2022-07-29T03:49:35;12.45;;;9.60;;
54657;SDS011;56972;43.886;20.354;2022-07-29T03:52:02;13.80;;;10.27;;
54657;SDS011;56972;43.886;20.354;2022-07-29T03:54:28;13.75;;;10.35;;
54657;SDS011;56972;43.886;20.354;2022-07-29T03:56:54;12.25;;;10.75;;
54657;SDS011;56972;43.886;20.354;2022-07-29T03:59:20;16.98;;;10.95;;
54657;SDS011;56972;43.886;20.354;2022-07-29T04:01:47;15.50;;;11.98;;
54657;SDS011;56972;43.886;20.354;2022-07-29T04:04:13;13.65;;;11.90;;
54657;SDS011;56972;43.886;20.354;2022-07-29T04:06:44;16.63;;;11.70;;
54657;SDS011;56972;43.886;20.354;2022-07-29T04:09:10;14.77;;;10.75;;
54657;SDS011;56972;43.886;20.354;2022-07-29T04:11:38;12.10;;;10.38;;
54657;SDS011;56972;43.886;20.354;2022-07-29T04:14:05;14.98;;;11.00;;
54657;SDS011;56972;43.886;20.354;2022-07-29T04:16:31;18.70;;;11.55;;
54657;SDS011;56972;43.886;20.354;2022-07-29T04:18:57;11.35;;;9.52;;
54657;SDS011;56972;43.886;20.354;2022-07-29T04:21:23;12.50;;;9.57;;
54657;SDS011;56972;43.886;20.354;2022-07-29T04:23:50;20.17;;;10.52;;
54657;SDS011;56972;43.886;20.354;2022-07-29T04:26:16;11.13;;;9.82;;
54657;SDS011;56972;43.886;20.354;2022-07-29T04:28:42;17.17;;;10.48;;
54657;SDS011;56972;43.886;20.354;2022-07-29T04:31:09;19.45;;;9.98;;
54657;SDS011;56972;43.886;20.354;2022-07-29T04:33:35;12.48;;;10.77;;
54657;SDS011;56972;43.886;20.354;2022-07-29T04:36:01;13.20;;;10.85;;
54657;SDS011;56972;43.886;20.354;2022-07-29T04:38:27;15.45;;;10.38;;
54657;SDS011;56972;43.886;20.354;2022-07-29T04:40:53;12.23;;;10.98;;
54657;SDS011;56972;43.886;20.354;2022-07-29T04:43:19;20.90;;;11.40;;
54657;SDS011;56972;43.886;20.354;2022-07-29T04:45:45;21.15;;;11.55;;
54657;SDS011;56972;43.886;20.354;2022-07-29T04:48:11;15.20;;;10.60;;
54657;SDS011;56972;43.886;20.354;2022-07-29T04:50:37;13.98;;;11.38;;
54657;SDS011;56972;43.886;20.354;2022-07-29T04:53:04;22.40;;;11.32;;
54657;SDS011;56972;43.886;20.354;2022-07-29T04:55:30;14.82;;;11.10;;
54657;SDS011;56972;43.886;20.354;2022-07-29T04:57:56;19.02;;;11.55;;
54657;SDS011;56972;43.886;20.354;2022-07-29T05:00:22;14.45;;;11.00;;
54657;SDS011;56972;43.886;20.354;2022-07-29T05:02:49;15.45;;;11.43;;
54657;SDS011;56972;43.886;20.354;2022-07-29T05:05:15;18.30;;;11.30;;
54657;SDS011;56972;43.886;20.354;2022-07-29T05:07:41;14.00;;;10.52;;
54657;SDS011;56972;43.886;20.354;2022-07-29T05:10:07;23.73;;;11.75;;
54657;SDS011;56972;43.886;20.354;2022-07-29T05:12:33;21.25;;;12.02;;
54657;SDS011;56972;43.886;20.354;2022-07-29T05:14:59;17.38;;;11.07;;
54657;SDS011;56972;43.886;20.354;2022-07-29T05:17:26;17.80;;;12.00;;
54657;SDS011;56972;43.886;20.354;2022-07-29T05:19:52;20.83;;;11.82;;
54657;SDS011;56972;43.886;20.354;2022-07-29T05:22:18;14.20;;;10.45;;
54657;SDS011;56972;43.886;20.354;2022-07-29T05:24:45;16.33;;;10.15;;
54657;SDS011;56972;43.886;20.354;2022-07-29T05:27:11;15.30;;;10.60;;
54657;SDS011;56972;43.886;20.354;2022-07-29T05:29:37;12.55;;;8.80;;
54657;SDS011;56972;43.886;20.354;2022-07-29T05:32:03;19.33;;;10.38;;
54657;SDS011;56972;43.886;20.354;2022-07-29T05:34:30;12.30;;;10.40;;
54657;SDS011;56972;43.886;20.354;2022-07-29T05:36:56;16.08;;;9.80;;
54657;SDS011;56972;43.886;20.354;2022-07-29T05:39:22;14.98;;;10.98;;
54657;SDS011;56972;43.886;20.354;2022-07-29T05:41:48;15.50;;;10.73;;
54657;SDS011;56972;43.886;20.354;2022-07-29T05:44:14;16.42;;;9.50;;
54657;SDS011;56972;43.886;20.354;2022-07-29T05:46:40;16.13;;;10.60;;
54657;SDS011;56972;43.886;20.354;2022-07-29T05:49:06;19.42;;;11.18;;
54657;SDS011;56972;43.886;20.354;2022-07-29T05:51:34;16.75;;;11.32;;
54657;SDS011;56972;43.886;20.354;2022-07-29T05:54:00;17.33;;;11.07;;
54657;SDS011;56972;43.886;20.354;2022-07-29T05:56:26;21.88;;;10.38;;
54657;SDS011;56972;43.886;20.354;2022-07-29T05:58:52;17.30;;;10.77;;
54657;SDS011;56972;43.886;20.354;2022-07-29T06:01:19;16.63;;;9.65;;
54657;SDS011;56972;43.886;20.354;2022-07-29T06:03:45;15.50;;;10.35;;
54657;SDS011;56972;43.886;20.354;2022-07-29T06:06:11;15.30;;;9.98;;
54657;SDS011;56972;43.886;20.354;2022-07-29T06:08:37;15.88;;;9.80;;
54657;SDS011;56972;43.886;20.354;2022-07-29T06:11:03;13.98;;;9.65;;
54657;SDS011;56972;43.886;20.354;2022-07-29T06:13:30;23.23;;;10.80;;
54657;SDS011;56972;43.886;20.354;2022-07-29T06:15:56;19.70;;;10.32;;
54657;SDS011;56972;43.886;20.354;2022-07-29T06:18:22;13.80;;;9.80;;
54657;SDS011;56972;43.886;20.354;2022-07-29T06:20:52;15.60;;;9.52;;
54657;SDS011;56972;43.886;20.354;2022-07-29T06:23:19;15.65;;;9.50;;
54657;SDS011;56972;43.886;20.354;2022-07-29T06:25:45;23.20;;;11.73;;
54657;SDS011;56972;43.886;20.354;2022-07-29T06:28:11;14.82;;;10.27;;
54657;SDS011;56972;43.886;20.354;2022-07-29T06:30:38;18.80;;;10.15;;
54657;SDS011;56972;43.886;20.354;2022-07-29T06:33:04;14.25;;;10.00;;
54657;SDS011;56972;43.886;20.354;2022-07-29T06:35:30;12.70;;;9.68;;
54657;SDS011;56972;43.886;20.354;2022-07-29T06:37:58;25.70;;;10.20;;
54657;SDS011;56972;43.886;20.354;2022-07-29T06:40:24;19.73;;;10.02;;
54657;SDS011;56972;43.886;20.354;2022-07-29T06:43:09;14.32;;;8.68;;
54657;SDS011;56972;43.886;20.354;2022-07-29T06:45:35;19.55;;;9.68;;
54657;SDS011;56972;43.886;20.354;2022-07-29T06:48:03;16.17;;;9.57;;
54657;SDS011;56972;43.886;20.354;2022-07-29T06:50:29;17.40;;;8.82;;
54657;SDS011;56972;43.886;20.354;2022-07-29T06:52:55;16.42;;;8.90;;
54657;SDS011;56972;43.886;20.354;2022-07-29T06:55:21;19.00;;;9.10;;
54657;SDS011;56972;43.886;20.354;2022-07-29T06:57:47;13.07;;;8.50;;
54657;SDS011;56972;43.886;20.354;2022-07-29T07:00:13;15.32;;;9.55;;
54657;SDS011;56972;43.886;20.354;2022-07-29T07:02:40;13.70;;;8.95;;
54657;SDS011;56972;43.886;20.354;2022-07-29T07:05:06;23.73;;;8.55;;
54657;SDS011;56972;43.886;20.354;2022-07-29T07:07:32;16.00;;;7.75;;
54657;SDS011;56972;43.886;20.354;2022-07-29T07:09:58;20.23;;;9.32;;
54657;SDS011;56972;43.886;20.354;2022-07-29T07:12:24;13.70;;;8.60;;
54657;SDS011;56972;43.886;20.354;2022-07-29T07:14:50;14.18;;;8.85;;
54657;SDS011;56972;43.886;20.354;2022-07-29T07:17:16;13.02;;;8.07;;
54657;SDS011;56972;43.886;20.354;2022-07-29T07:19:42;14.90;;;8.23;;
54657;SDS011;56972;43.886;20.354;2022-07-29T07:22:10;16.38;;;8.68;;
54657;SDS011;56972;43.886;20.354;2022-07-29T07:24:36;10.88;;;8.23;;
54657;SDS011;56972;43.886;20.354;2022-07-29T07:27:02;27.77;;;10.05;;
54657;SDS011;56972;43.886;20.354;2022-07-29T07:29:28;12.48;;;8.30;;
54657;SDS011;56972;43.886;20.354;2022-07-29T07:31:54;12.18;;;8.68;;
54657;SDS011;56972;43.886;20.354;2022-07-29T07:34:20;18.17;;;9.02;;
54657;SDS011;56972;43.886;20.354;2022-07-29T07:36:46;16.52;;;8.48;;
54657;SDS011;56972;43.886;20.354;2022-07-29T07:39:12;16.88;;;8.38;;
54657;SDS011;56972;43.886;20.354;2022-07-29T07:41:38;16.52;;;8.18;;
54657;SDS011;56972;43.886;20.354;2022-07-29T07:44:04;16.98;;;8.45;;
54657;SDS011;56972;43.886;20.354;2022-07-29T07:46:31;20.63;;;9.52;;
54657;SDS011;56972;43.886;20.354;2022-07-29T07:48:57;14.35;;;8.38;;
54657;SDS011;56972;43.886;20.354;2022-07-29T07:51:23;13.18;;;8.75;;
54657;SDS011;56972;43.886;20.354;2022-07-29T07:53:49;18.02;;;8.27;;
54657;SDS011;56972;43.886;20.354;2022-07-29T07:56:15;14.38;;;9.02;;
54657;SDS011;56972;43.886;20.354;2022-07-29T07:58:41;19.88;;;8.57;;
54657;SDS011;56972;43.886;20.354;2022-07-29T08:01:08;16.73;;;9.05;;
54657;SDS011;56972;43.886;20.354;2022-07-29T08:03:34;22.50;;;9.23;;
54657;SDS011;56972;43.886;20.354;2022-07-29T08:06:00;13.13;;;9.25;;
54657;SDS011;56972;43.886;20.354;2022-07-29T08:08:26;23.80;;;11.10;;
54657;SDS011;56972;43.886;20.354;2022-07-29T08:10:52;24.85;;;9.60;;
54657;SDS011;56972;43.886;20.354;2022-07-29T08:13:20;20.25;;;9.70;;
54657;SDS011;56972;43.886;20.354;2022-07-29T08:15:47;28.73;;;10.43;;
54657;SDS011;56972;43.886;20.354;2022-07-29T08:18:22;23.15;;;10.65;;
54657;SDS011;56972;43.886;20.354;2022-07-29T08:20:48;21.98;;;9.02;;
54657;SDS011;56972;43.886;20.354;2022-07-29T08:23:14;13.32;;;8.00;;
54657;SDS011;56972;43.886;20.354;2022-07-29T08:25:40;18.00;;;8.27;;
54657;SDS011;56972;43.886;20.354;2022-07-29T08:28:06;15.98;;;8.45;;
54657;SDS011;56972;43.886;20.354;2022-07-29T08:30:33;15.13;;;9.38;;
54657;SDS011;56972;43.886;20.354;2022-07-29T08:32:59;18.33;;;8.18;;
54657;SDS011;56972;43.886;20.354;2022-07-29T08:35:27;16.33;;;7.72;;
54657;SDS011;56972;43.886;20.354;2022-07-29T08:37:54;15.63;;;9.23;;
54657;SDS011;56972;43.886;20.354;2022-07-29T08:40:21;13.45;;;8.82;;
54657;SDS011;56972;43.886;20.354;2022-07-29T08:42:48;12.75;;;8.45;;
54657;SDS011;56972;43.886;20.354;2022-07-29T08:45:15;14.50;;;9.35;;
54657;SDS011;56972;43.886;20.354;2022-07-29T08:47:41;17.83;;;9.15;;
54657;SDS011;56972;43.886;20.354;2022-07-29T08:50:07;11.10;;;8.13;;
54657;SDS011;56972;43.886;20.354;2022-07-29T08:52:38;14.73;;;8.65;;
54657;SDS011;56972;43.886;20.354;2022-07-29T08:55:04;11.73;;;7.90;;
54657;SDS011;56972;43.886;20.354;2022-07-29T08:57:30;12.88;;;8.43;;
54657;SDS011;56972;43.886;20.354;2022-07-29T08:59:58;13.85;;;9.40;;
54657;SDS011;56972;43.886;20.354;2022-07-29T09:02:25;13.02;;;8.10;;
54657;SDS011;56972;43.886;20.354;2022-07-29T09:04:54;13.38;;;7.30;;
54657;SDS011;56972;43.886;20.354;2022-07-29T09:07:20;20.42;;;8.38;;
54657;SDS011;56972;43.886;20.354;2022-07-29T09:09:46;21.52;;;7.88;;
54657;SDS011;56972;43.886;20.354;2022-07-29T09:12:13;16.77;;;10.80;;
54657;SDS011;56972;43.886;20.354;2022-07-29T09:14:39;11.50;;;8.18;;
54657;SDS011;56972;43.886;20.354;2022-07-29T09:17:05;15.73;;;9.55;;
54657;SDS011;56972;43.886;20.354;2022-07-29T09:19:35;11.65;;;7.43;;
54657;SDS011;56972;43.886;20.354;2022-07-29T09:22:02;13.75;;;8.95;;
54657;SDS011;56972;43.886;20.354;2022-07-29T09:29:45;12.70;;;7.82;;
54657;SDS011;56972;43.886;20.354;2022-07-29T09:32:12;9.40;;;6.47;;
54657;SDS011;56972;43.886;20.354;2022-07-29T09:34:38;8.25;;;6.18;;
54657;SDS011;56972;43.886;20.354;2022-07-29T09:37:06;10.93;;;7.07;;
54657;SDS011;56972;43.886;20.354;2022-07-29T09:39:36;10.05;;;7.05;;
54657;SDS011;56972;43.886;20.354;2022-07-29T09:42:05;12.32;;;7.10;;
54657;SDS011;56972;43.886;20.354;2022-07-29T09:47:07;12.68;;;7.05;;
54657;SDS011;56972;43.886;20.354;2022-07-29T09:49:34;12.10;;;6.25;;
54657;SDS011;56972;43.886;20.354;2022-07-29T09:52:04;8.68;;;7.38;;
54657;SDS011;56972;43.886;20.354;2022-07-29T09:54:31;8.10;;;7.20;;
54657;SDS011;56972;43.886;20.354;2022-07-29T09:57:02;15.13;;;7.22;;
54657;SDS011;56972;43.886;20.354;2022-07-29T09:59:30;9.10;;;7.65;;
54657;SDS011;56972;43.886;20.354;2022-07-29T10:01:56;11.98;;;7.03;;
54657;SDS011;56972;43.886;20.354;2022-07-29T10:04:22;14.02;;;7.82;;
54657;SDS011;56972;43.886;20.354;2022-07-29T10:06:56;9.82;;;6.78;;
54657;SDS011;56972;43.886;20.354;2022-07-29T10:09:22;13.93;;;7.35;;
54657;SDS011;56972;43.886;20.354;2022-07-29T10:14:34;7.40;;;6.18;;
54657;SDS011;56972;43.886;20.354;2022-07-29T10:17:01;7.32;;;6.57;;
54657;SDS011;56972;43.886;20.354;2022-07-29T10:19:28;24.10;;;8.98;;
54657;SDS011;56972;43.886;20.354;2022-07-29T10:21:56;9.25;;;6.80;;
54657;SDS011;56972;43.886;20.354;2022-07-29T10:24:22;15.95;;;8.35;;
54657;SDS011;56972;43.886;20.354;2022-07-29T10:26:49;21.20;;;7.53;;
54657;SDS011;56972;43.886;20.354;2022-07-29T10:29:15;11.95;;;8.68;;
54657;SDS011;56972;43.886;20.354;2022-07-29T10:31:44;11.88;;;7.25;;
54657;SDS011;56972;43.886;20.354;2022-07-29T10:34:14;11.40;;;6.63;;
54657;SDS011;56972;43.886;20.354;2022-07-29T10:36:57;12.70;;;7.10;;
54657;SDS011;56972;43.886;20.354;2022-07-29T10:42:20;25.08;;;8.05;;
54657;SDS011;56972;43.886;20.354;2022-07-29T10:44:48;7.75;;;6.95;;
54657;SDS011;56972;43.886;20.354;2022-07-29T10:47:21;10.63;;;6.93;;
54657;SDS011;56972;43.886;20.354;2022-07-29T10:52:23;10.85;;;7.38;;
54657;SDS011;56972;43.886;20.354;2022-07-29T10:54:52;10.57;;;7.05;;
54657;SDS011;56972;43.886;20.354;2022-07-29T10:57:28;12.52;;;6.80;;
54657;SDS011;56972;43.886;20.354;2022-07-29T11:07:28;12.50;;;7.35;;
54657;SDS011;56972;43.886;20.354;2022-07-29T11:15:05;12.65;;;6.35;;
54657;SDS011;56972;43.886;20.354;2022-07-29T11:22:58;8.40;;;6.32;;
54657;SDS011;56972;43.886;20.354;2022-07-29T11:25:25;13.02;;;6.88;;
54657;SDS011;56972;43.886;20.354;2022-07-29T11:27:52;13.20;;;6.90;;
54657;SDS011;56972;43.886;20.354;2022-07-29T11:30:18;11.20;;;7.68;;
54657;SDS011;56972;43.886;20.354;2022-07-29T11:32:44;7.82;;;6.10;;
54657;SDS011;56972;43.886;20.354;2022-07-29T11:35:13;9.43;;;7.05;;
54657;SDS011;56972;43.886;20.354;2022-07-29T11:37:39;8.10;;;6.47;;
54657;SDS011;56972;43.886;20.354;2022-07-29T11:47:47;13.30;;;7.45;;
54657;SDS011;56972;43.886;20.354;2022-07-29T11:50:14;12.07;;;6.60;;
54657;SDS011;56972;43.886;20.354;2022-07-29T11:52:42;8.82;;;6.35;;
54657;SDS011;56972;43.886;20.354;2022-07-29T11:55:10;13.10;;;6.68;;
54657;SDS011;56972;43.886;20.354;2022-07-29T11:57:44;8.88;;;5.93;;
54657;SDS011;56972;43.886;20.354;2022-07-29T12:00:11;8.50;;;6.13;;
54657;SDS011;56972;43.886;20.354;2022-07-29T12:02:42;8.85;;;6.35;;
54657;SDS011;56972;43.886;20.354;2022-07-29T12:05:09;7.90;;;6.05;;
54657;SDS011;56972;43.886;20.354;2022-07-29T12:07:36;7.00;;;5.90;;
54657;SDS011;56972;43.886;20.354;2022-07-29T12:10:04;8.63;;;5.88;;
54657;SDS011;56972;43.886;20.354;2022-07-29T12:12:30;9.57;;;6.03;;
54657;SDS011;56972;43.886;20.354;2022-07-29T12:14:56;9.95;;;6.25;;
54657;SDS011;56972;43.886;20.354;2022-07-29T12:17:29;8.82;;;6.00;;
54657;SDS011;56972;43.886;20.354;2022-07-29T12:19:56;6.13;;;5.50;;
54657;SDS011;56972;43.886;20.354;2022-07-29T12:22:32;6.93;;;6.22;;
54657;SDS011;56972;43.886;20.354;2022-07-29T12:25:08;7.43;;;6.18;;
54657;SDS011;56972;43.886;20.354;2022-07-29T12:27:35;7.75;;;6.22;;
54657;SDS011;56972;43.886;20.354;2022-07-29T12:30:08;8.82;;;5.85;;
54657;SDS011;56972;43.886;20.354;2022-07-29T12:32:36;7.65;;;6.13;;
54657;SDS011;56972;43.886;20.354;2022-07-29T12:35:06;7.32;;;6.10;;
54657;SDS011;56972;43.886;20.354;2022-07-29T12:37:33;12.93;;;6.13;;
54657;SDS011;56972;43.886;20.354;2022-07-29T12:40:00;8.25;;;5.90;;
54657;SDS011;56972;43.886;20.354;2022-07-29T12:42:27;7.68;;;6.82;;
54657;SDS011;56972;43.886;20.354;2022-07-29T12:44:53;10.48;;;6.45;;
54657;SDS011;56972;43.886;20.354;2022-07-29T12:47:19;6.53;;;5.53;;
54657;SDS011;56972;43.886;20.354;2022-07-29T12:49:46;8.00;;;6.07;;
54657;SDS011;56972;43.886;20.354;2022-07-29T12:52:28;8.48;;;5.82;;
54657;SDS011;56972;43.886;20.354;2022-07-29T12:54:54;6.43;;;5.63;;
54657;SDS011;56972;43.886;20.354;2022-07-29T12:57:20;8.65;;;5.93;;
54657;SDS011;56972;43.886;20.354;2022-07-29T13:02:36;9.82;;;5.75;;
54657;SDS011;56972;43.886;20.354;2022-07-29T13:05:02;7.05;;;5.45;;
54657;SDS011;56972;43.886;20.354;2022-07-29T13:07:29;6.65;;;5.95;;
54657;SDS011;56972;43.886;20.354;2022-07-29T13:15:26;7.95;;;5.97;;
54657;SDS011;56972;43.886;20.354;2022-07-29T13:17:52;9.75;;;5.47;;
54657;SDS011;56972;43.886;20.354;2022-07-29T13:20:18;6.10;;;5.50;;
54657;SDS011;56972;43.886;20.354;2022-07-29T13:22:47;6.28;;;5.65;;
54657;SDS011;56972;43.886;20.354;2022-07-29T13:25:13;8.27;;;5.22;;
54657;SDS011;56972;43.886;20.354;2022-07-29T13:27:39;8.98;;;5.25;;
54657;SDS011;56972;43.886;20.354;2022-07-29T13:30:06;13.02;;;6.22;;
54657;SDS011;56972;43.886;20.354;2022-07-29T13:32:32;14.07;;;5.78;;
54657;SDS011;56972;43.886;20.354;2022-07-29T13:35:03;7.15;;;5.82;;
54657;SDS011;56972;43.886;20.354;2022-07-29T13:37:30;8.07;;;5.57;;
54657;SDS011;56972;43.886;20.354;2022-07-29T13:39:57;6.85;;;4.95;;
54657;SDS011;56972;43.886;20.354;2022-07-29T13:42:24;8.25;;;5.50;;
54657;SDS011;56972;43.886;20.354;2022-07-29T13:44:50;7.32;;;5.35;;
54657;SDS011;56972;43.886;20.354;2022-07-29T13:47:17;10.93;;;6.50;;
54657;SDS011;56972;43.886;20.354;2022-07-29T13:49:43;8.23;;;5.80;;
54657;SDS011;56972;43.886;20.354;2022-07-29T13:52:09;10.93;;;6.10;;
54657;SDS011;56972;43.886;20.354;2022-07-29T13:54:35;7.93;;;5.68;;
54657;SDS011;56972;43.886;20.354;2022-07-29T13:57:03;9.55;;;6.10;;
54657;SDS011;56972;43.886;20.354;2022-07-29T13:59:29;11.43;;;6.55;;
54657;SDS011;56972;43.886;20.354;2022-07-29T14:01:55;7.82;;;6.13;;
54657;SDS011;56972;43.886;20.354;2022-07-29T14:04:21;7.85;;;5.13;;
54657;SDS011;56972;43.886;20.354;2022-07-29T14:06:50;5.38;;;4.82;;
54657;SDS011;56972;43.886;20.354;2022-07-29T14:09:17;6.45;;;5.32;;
54657;SDS011;56972;43.886;20.354;2022-07-29T14:11:43;10.55;;;5.57;;
54657;SDS011;56972;43.886;20.354;2022-07-29T14:14:10;8.80;;;6.32;;
54657;SDS011;56972;43.886;20.354;2022-07-29T14:16:37;5.30;;;4.80;;
54657;SDS011;56972;43.886;20.354;2022-07-29T14:19:03;8.43;;;4.70;;
54657;SDS011;56972;43.886;20.354;2022-07-29T14:21:29;5.20;;;4.70;;
54657;SDS011;56972;43.886;20.354;2022-07-29T14:23:55;8.70;;;4.18;;
54657;SDS011;56972;43.886;20.354;2022-07-29T14:26:21;7.85;;;4.75;;
54657;SDS011;56972;43.886;20.354;2022-07-29T14:28:48;5.63;;;5.00;;
54657;SDS011;56972;43.886;20.354;2022-07-29T14:31:14;5.82;;;4.57;;
54657;SDS011;56972;43.886;20.354;2022-07-29T14:33:40;6.35;;;5.45;;
54657;SDS011;56972;43.886;20.354;2022-07-29T14:36:06;7.57;;;4.97;;
54657;SDS011;56972;43.886;20.354;2022-07-29T14:38:32;5.72;;;5.07;;
54657;SDS011;56972;43.886;20.354;2022-07-29T14:40:58;8.57;;;5.78;;
54657;SDS011;56972;43.886;20.354;2022-07-29T14:43:25;8.40;;;5.55;;
54657;SDS011;56972;43.886;20.354;2022-07-29T14:45:51;8.15;;;5.43;;
54657;SDS011;56972;43.886;20.354;2022-07-29T14:48:17;11.15;;;5.38;;
54657;SDS011;56972;43.886;20.354;2022-07-29T14:50:43;7.25;;;4.97;;
54657;SDS011;56972;43.886;20.354;2022-07-29T14:53:09;6.25;;;5.45;;
54657;SDS011;56972;43.886;20.354;2022-07-29T14:55:37;9.38;;;5.82;;
54657;SDS011;56972;43.886;20.354;2022-07-29T14:58:03;13.60;;;5.07;;
54657;SDS011;56972;43.886;20.354;2022-07-29T15:00:29;8.70;;;5.05;;
54657;SDS011;56972;43.886;20.354;2022-07-29T15:02:57;10.35;;;4.72;;
54657;SDS011;56972;43.886;20.354;2022-07-29T15:05:24;5.68;;;4.65;;
54657;SDS011;56972;43.886;20.354;2022-07-29T15:07:50;6.88;;;4.40;;
54657;SDS011;56972;43.886;20.354;2022-07-29T15:10:16;8.27;;;5.18;;
54657;SDS011;56972;43.886;20.354;2022-07-29T15:12:42;12.52;;;5.25;;
54657;SDS011;56972;43.886;20.354;2022-07-29T15:15:08;11.55;;;5.40;;
54657;SDS011;56972;43.886;20.354;2022-07-29T15:17:34;8.90;;;4.78;;
54657;SDS011;56972;43.886;20.354;2022-07-29T15:20:01;8.80;;;6.13;;
54657;SDS011;56972;43.886;20.354;2022-07-29T15:22:27;6.72;;;5.18;;
54657;SDS011;56972;43.886;20.354;2022-07-29T15:24:53;5.65;;;4.93;;